Cumminsville, Kentucky
Current Conditions -  °F | °C
As of 5:35 PM on Monday 24 Nov 2014 (Local Time) from KFGX Reporting Station
Broken Clouds Broken Clouds  
Wind Chill: 38°   Ceiling: 3400
Heat Index: 44°   Visibility: 10mi
Dew Point: 35°   Wind: 13mph
Humidity: 71%   Direction: 270°W
Pressure: 29.81"   Gusts: 17mph
Location:  38.6516°N, 84.0942°W
Report Text: KFGX 242235Z AUTO 27011G15KT 10SM BKN034 07/02 A2981 RMK AO2 T00670017
Loading
Personal Weather Stations






























Interactive Weather Map New forecast layout! Learn more

10-Day Weather Forecast

Advertisements
Track Severe Weather on mobile